Flight Track Log - Related Links

Times and Time Zones

All times are in EDT time to prevent confusion due to time zone crossing. See the RPA3159 flight status page for this flight to view local times or setup timezone preferences in your user account.

Time Position Orientation Groundspeed Altitude Reporting Facility
EDT Latitude Longitude Course Direction KTS MPH feet Rate Location/Type
Mon 01:06:00 PM 44.2016 -73.2500 180° South  Level FlightAware Approximate
Mon 01:07:00 PM 44.1127 -73.2828 195° South  Level FlightAware Approximate
Mon 01:07:55 PM 44.2339 -73.1703 198° South 278 320 10,400  Level Boston Center
Mon 01:08:00 PM 44.0234 -73.3144 194° South  Level FlightAware Approximate
Mon 01:08:55 PM 44.1503 -73.2069 197° South 299 344 12,200  Level Boston Center
Mon 01:09:00 PM 43.9339 -73.3443 193° South  Level FlightAware Approximate
Mon 01:09:55 PM 44.0647 -73.2433 194° South 320 368 15,100  Level Boston Center
Mon 01:10:00 PM 43.8449 -73.3770 195° South  Level FlightAware Approximate
Mon 01:10:00 PM 44.0566 -73.2548 194° South  Level Estimated
Mon 01:11:00 PM 43.7560 -73.4104 195° South  Level FlightAware Approximate
Mon 01:11:55 PM 43.8956 -73.3189 198° South 325 374 19,700  Level Boston Center
Mon 01:12:00 PM 43.6671 -73.4436 195° South  Level FlightAware Approximate
Mon 01:12:55 PM 43.8097 -73.3550 197° South 325 374 21,600  Level Boston Center
Mon 01:13:00 PM 43.5794 -73.4822 198° South  Level FlightAware Approximate
Mon 01:13:55 PM 43.7094 -73.3994 198° South 325 374 23,600  Level Boston Center
Mon 01:14:55 PM 43.6300 -73.4297 195° South 332 382 24,900 1,200 Climbing Boston Center
Mon 01:15:55 PM 43.5378 -73.4683 197° South 343 395 26,000 550 Climbing Boston Center
Mon 01:16:55 PM 43.4458 -73.5097 198° South 343 395 26,000  Level Boston Center
Mon 01:17:55 PM 43.3517 -73.5478 196° South 343 395 26,000  Level Boston Center
Mon 01:18:55 PM 43.2594 -73.5861 197° South 343 395 26,000  Level Boston Center
Mon 01:19:55 PM 43.1653 -73.6242 196° South 343 395 26,000  Level Boston Center
Mon 01:20:55 PM 43.0711 -73.6678 199° South 349 402 26,000  Level Boston Center
Mon 01:21:55 PM 42.9769 -73.7086 198° South 354 407 26,000  Level Boston Center
Mon 01:23:07 PM 42.8828 -73.7492 198° South 354 407 26,000  Level Boston Center
Mon 01:24:07 PM 42.7675 -73.7975 197° South 364 419 26,000  Level Boston Center
Mon 01:26:07 PM 42.6503 -74.0039 232° Southwest 346 398 26,000 -300 Level Boston Center
Mon 01:27:07 PM 42.5964 -74.1156 237° Southwest 352 405 25,100 -1,000 Descending Boston Center
Mon 01:28:07 PM 42.5425 -74.2294 237° Southwest 358 412 24,000 -750 Descending Boston Center
Mon 01:29:07 PM 42.4867 -74.3350 234° Southwest 353 406 23,600 -800 Descending Boston Center
Mon 01:30:07 PM 42.4267 -74.4286 229° Southwest 346 398 22,400 -1,240 Descending Boston Center
Mon 01:31:08 PM 42.3644 -74.5250 229° Southwest 341 392 21,100 -1,136 Descending Boston Center
Mon 01:32:19 PM 42.3067 -74.6158 229° Southwest 341 392 19,900 -670 Descending Boston Center
Mon 01:34:16 PM 42.1731 -74.8142 228° Southwest 330 380 19,000 -303 Descending New York Center
Mon 01:35:17 PM 42.1158 -74.9058 230° Southwest 330 380 19,000  Level New York Center
Mon 01:36:17 PM 42.0606 -74.9917 229° Southwest 329 379 19,000  Level New York Center
Mon 01:37:15 PM 42.0011 -75.0828 229° Southwest 329 379 19,000  Level New York Center
Mon 01:38:15 PM 41.9253 -75.1669 220° Southwest 324 373 19,000  Level New York Center
Mon 01:39:16 PM 41.8481 -75.2286 211° Southwest 330 380 19,000 -397 Level New York Center
Mon 01:40:16 PM 41.8047 -75.3286 240° Southwest 312 359 18,200 -1,041 Descending New York Center
Mon 01:41:17 PM 41.7778 -75.4325 251° West 317 365 16,900 -893 Descending New York Center
Mon 01:42:17 PM 41.7461 -75.5444 249° West 323 372 16,400 -908 Descending New York Center
Mon 01:43:16 PM 41.7119 -75.6669 250° West 323 372 15,100 -1,140 Descending New York Center
Mon 01:44:18 PM 41.6500 -75.7094 207° Southwest 278 320 14,100 -1,100 Descending New York Center
Mon 01:45:16 PM 41.5647 -75.7033 177° South 299 344 12,900 -1,128 Descending New York Center
Mon 01:46:15 PM 41.4775 -75.6997 178° South 306 352 11,900 -454 Descending New York Center
Mon 01:47:15 PM 41.3903 -75.6933 177° South 311 358 12,000 50 Climbing New York Center
Mon 01:48:16 PM 41.3050 -75.6897 178° South 311 358 12,000  Level New York Center
Mon 01:49:16 PM 41.2133 -75.6886 179° South 306 352 12,000  Level New York Center
Mon 01:50:17 PM 41.1281 -75.6878 180° South 311 358 12,000  Level New York Center
Mon 01:51:17 PM 41.0531 -75.6881 180° South 311 358 12,000  Level New York Center
Mon 01:52:15 PM 40.9572 -75.6867 179° South 310 357 12,000  Level New York Center
Mon 01:53:16 PM 40.8739 -75.6861 180° South 310 357 12,000  Level New York Center
Mon 01:54:15 PM 40.7864 -75.6853 180° South 310 357 12,000  Level New York Center
Mon 01:55:15 PM 40.7197 -75.6339 150° Southeast 299 344 12,000  Level New York Center
Mon 01:56:16 PM 40.6428 -75.5792 152° Southeast 294 338 12,000  Level New York Center
Mon 01:57:16 PM 40.5722 -75.5250 150° Southeast 304 350 12,000 -862 Level New York Center
Mon 01:59:17 PM 40.4386 -75.4258 151° Southeast 304 350 9,400 -1,508 Descending New York Center
Mon 02:00:15 PM 40.3631 -75.3825 156° South 282 325 7,500 -800 Descending New York Center
Mon 02:02:17 PM 40.2419 -75.3364 164° South 221 254 7,000 -344 Descending New York Center
Mon 02:04:37 PM 40.1167 -75.4000 201° Southwest 210 242 6,000 -333 Descending Philadelphia TRACON
Mon 02:05:17 PM 40.0739 -75.4231 202° Southwest 221 254 6,000  Level New York Center
Mon 02:06:16 PM 40.0250 -75.4497 203° Southwest 216 249 6,000  Level New York Center
Mon 02:07:17 PM 39.9633 -75.4808 201° Southwest 216 249 6,000 -50 Level New York Center
Mon 02:08:15 PM 39.9206 -75.5022 201° Southwest 206 237 5,900 -555 Descending New York Center
Mon 02:09:16 PM 39.8914 -75.5569 235° Southwest 167 192 4,900 -1,131 Descending New York Center
Mon 02:10:17 PM 39.8469 -75.5728 195° South 161 185 3,600 -803 Descending New York Center
Mon 02:11:38 PM 39.8167 -75.5000 118° Southeast 178 205 3,000 -511 Descending Philadelphia TRACON
Mon 02:12:38 PM 39.8333 -75.4500 67° East 197 227 2,400 -750 Descending Philadelphia TRACON
Mon 02:13:38 PM 39.8333 -75.3833 90° East 184 212 1,500 -900 Descending Philadelphia TRACON

Login

Don't have an account? Register now (free) for customized features, flight alerts, and more!